»·PEaware :: N946S KFMN-KAVQ

N946S :: KFMN-KAVQ

FLIGHT INFORMATION

Flight Status: Arrived
Operator: Privately registered:
United States
More flights under this callsign
Pilot: Ethan S. (29221)
Aircraft: SOCATA TBM-900
(TBM9)
More flights by this aircraft type
Origin: KFMN Four Corners Regl
United States
Destination: KAVQ Marana Northwest Regl
United States
More flights between these airports :: More routes between these airports
Route: +CHACO1 V421 ZUN SALTS
File this flight plan on PilotEdge
Remarks:
Altitude:
(Current/Filed)
30,000ft
Speed:
(Current/Filed)
320kts
Departed: 30-Sep-20 03:44 PM
Arrived: 30-Sep-20 04:55 PM
Distance/Time
Traveled:
299nm/1:11
Distance/Time
To Go:
Arrived

Flight Plot

Page will automatically refresh every two minutes.

Flight plan parsing failed; only flown route is shown


Map Options




Map Legend


Flown Route
Filed Route
Departure Airport
Arrival Airport
Navaid (VOR, NDB)
Fix

Horizontal Profiles

Position Reports

Time Latitude Longitude Heading Altitude Ground
Speed
30-Sep-20 15:31 36.739655 -108.226837 268 5506ft 0kts
30-Sep-20 15:32 36.739655 -108.226837 268 5506ft 0kts
30-Sep-20 15:33 36.739655 -108.226837 268 5506ft 0kts
30-Sep-20 15:34 36.739655 -108.226837 268 5506ft 0kts
30-Sep-20 15:35 36.739655 -108.226837 268 5506ft 0kts
30-Sep-20 15:36 36.739655 -108.226837 268 5506ft 0kts
30-Sep-20 15:37 36.739655 -108.226837 268 5506ft 0kts
30-Sep-20 15:38 36.739655 -108.226837 268 5506ft 0kts
30-Sep-20 15:39 36.739655 -108.226837 268 5506ft 0kts
30-Sep-20 15:40 36.740211 -108.226421 32 5506ft 11kts
30-Sep-20 15:41 36.740768 -108.220503 88 5506ft 18kts
30-Sep-20 15:42 36.740860 -108.218072 79 5506ft 9kts
30-Sep-20 15:43 36.741346 -108.231215 271 5611ft 111kts
30-Sep-20 15:44 36.718377 -108.252179 140 7447ft 156kts
30-Sep-20 15:45 36.684475 -108.216437 139 9568ft 161kts
30-Sep-20 15:46 36.648791 -108.180765 154 12123ft 160kts
30-Sep-20 15:47 36.603560 -108.188845 205 14253ft 169kts
30-Sep-20 15:48 36.558857 -108.215959 208 16672ft 178kts
30-Sep-20 15:49 36.512851 -108.244269 209 19020ft 185kts
30-Sep-20 15:50 36.464966 -108.273699 211 21330ft 193kts
30-Sep-20 15:51 36.416101 -108.303693 212 23616ft 197kts
30-Sep-20 15:52 36.365890 -108.334467 213 25666ft 202kts
30-Sep-20 15:53 36.314365 -108.366003 214 27625ft 208kts
30-Sep-20 15:54 36.261348 -108.398393 215 29778ft 211kts
30-Sep-20 15:55 36.199492 -108.436268 213 30321ft 275kts
30-Sep-20 15:56 36.124751 -108.481665 212 30301ft 304kts
30-Sep-20 15:57 36.045985 -108.529487 212 30332ft 312kts
30-Sep-20 15:58 35.965448 -108.578301 212 30351ft 315kts
30-Sep-20 15:59 35.884490 -108.627260 212 30344ft 317kts
30-Sep-20 16:00 35.804258 -108.675672 211 30348ft 317kts
30-Sep-20 16:01 35.723729 -108.724152 211 30348ft 318kts
30-Sep-20 16:02 35.642981 -108.772652 211 30350ft 318kts
30-Sep-20 16:03 35.560753 -108.821930 211 30352ft 318kts
30-Sep-20 16:04 35.477627 -108.871616 211 30353ft 319kts
30-Sep-20 16:05 35.393484 -108.918456 210 30350ft 320kts
30-Sep-20 16:06 35.308946 -108.965328 209 30349ft 320kts
30-Sep-20 16:07 35.224929 -109.011813 209 30350ft 320kts
30-Sep-20 16:08 35.140512 -109.058402 209 30346ft 320kts
30-Sep-20 16:09 35.055926 -109.104978 209 30328ft 320kts
30-Sep-20 16:10 34.972339 -109.151785 214 30293ft 316kts
30-Sep-20 16:11 34.911665 -109.229836 230 30301ft 307kts
30-Sep-20 16:12 34.853345 -109.310949 229 30301ft 307kts
30-Sep-20 16:13 34.795190 -109.391598 229 30301ft 307kts
30-Sep-20 16:14 34.737604 -109.471282 229 30301ft 307kts
30-Sep-20 16:15 34.679901 -109.550943 229 30300ft 307kts
30-Sep-20 16:16 34.622363 -109.630195 229 30300ft 307kts
30-Sep-20 16:17 34.565060 -109.708951 229 30304ft 307kts
30-Sep-20 16:18 34.507743 -109.787541 229 30317ft 307kts
30-Sep-20 16:19 34.450383 -109.866014 229 30339ft 307kts
30-Sep-20 16:20 34.393191 -109.944086 229 30363ft 307kts
30-Sep-20 16:21 34.335142 -110.023148 229 30357ft 308kts
30-Sep-20 16:22 34.276120 -110.103352 229 30358ft 307kts
30-Sep-20 16:23 34.217340 -110.183043 229 30364ft 307kts
30-Sep-20 16:24 34.158445 -110.262709 229 30358ft 308kts
30-Sep-20 16:25 34.099588 -110.342145 229 30361ft 308kts
30-Sep-20 16:26 34.041346 -110.420574 229 30364ft 308kts
30-Sep-20 16:27 33.983077 -110.498872 229 30359ft 308kts
30-Sep-20 16:28 33.918844 -110.567900 203 30269ft 314kts
30-Sep-20 16:29 33.834907 -110.603500 201 28950ft 317kts
30-Sep-20 16:30 33.750988 -110.640270 201 27627ft 317kts
30-Sep-20 16:31 33.666800 -110.677108 200 26307ft 317kts
30-Sep-20 16:32 33.582631 -110.713862 200 24989ft 317kts
30-Sep-20 16:33 33.499477 -110.750104 201 24126ft 304kts
30-Sep-20 16:34 33.420634 -110.784407 201 23995ft 300kts
30-Sep-20 16:35 33.339937 -110.819435 200 23992ft 306kts
30-Sep-20 16:36 33.257956 -110.854947 201 23992ft 308kts
30-Sep-20 16:37 33.174965 -110.890830 200 23579ft 321kts
30-Sep-20 16:38 33.086185 -110.929114 200 22055ft 327kts
30-Sep-20 16:39 32.998525 -110.966864 200 20491ft 319kts
30-Sep-20 16:40 32.911672 -111.004179 200 18917ft 316kts
30-Sep-20 16:41 32.825786 -111.041005 200 17346ft 314kts
30-Sep-20 16:42 32.740485 -111.077499 200 15773ft 306kts
30-Sep-20 16:43 32.658199 -111.112636 200 14188ft 297kts
30-Sep-20 16:44 32.578434 -111.146628 200 12633ft 294kts
30-Sep-20 16:45 32.502393 -111.178973 200 11993ft 271kts
30-Sep-20 16:46 32.432100 -111.208830 200 11998ft 260kts
30-Sep-20 16:47 32.362412 -111.238540 201 11999ft 258kts
30-Sep-20 16:48 32.291577 -111.269153 198 11195ft 275kts
30-Sep-20 16:49 32.259127 -111.220146 46 9536ft 224kts
30-Sep-20 16:50 32.305694 -111.191607 31 6916ft 173kts
30-Sep-20 16:51 32.349034 -111.173227 12 4053ft 165kts
30-Sep-20 16:52 32.383322 -111.186479 312 2784ft 124kts
30-Sep-20 16:53 32.403388 -111.209659 316 2077ft 88kts
30-Sep-20 16:54 32.407158 -111.216865 140 2024ft 8kts
30-Sep-20 16:55 32.405837 -111.217967 135 2024ft 0kts
30-Sep-20 16:56 32.405837 -111.217967 135 2024ft 0kts
30-Sep-20 16:57 32.405837 -111.217967 135 2024ft 0kts
30-Sep-20 16:58 32.405837 -111.217967 135 2024ft 0kts
30-Sep-20 16:59 32.405837 -111.217967 135 2024ft 0kts
30-Sep-20 17:00 32.405837 -111.217967 135 2024ft 0kts
30-Sep-20 17:01 32.405837 -111.217967 135 2024ft 0kts
30-Sep-20 17:03 32.405837 -111.217967 135 2024ft 0kts
30-Sep-20 17:04 32.405837 -111.217967 135 2024ft 0kts
30-Sep-20 17:05 32.405837 -111.217967 135 2024ft 0kts
30-Sep-20 17:06 32.405837 -111.217967 135 2024ft 0kts
30-Sep-20 17:07 32.405837 -111.217967 135 2024ft 0kts
30-Sep-20 17:08 32.405837 -111.217967 135 2024ft 0kts
30-Sep-20 17:09 32.405837 -111.217967 135 2024ft 0kts
30-Sep-20 17:10 32.405837 -111.217967 135 2024ft 0kts

Navigation Log

Ident Type
Flight plan parsing failed, navigation log unavailable